sensor_id;sensor_type;location;lat;lon;timestamp;temperature;humidity
11824;DHT22;5969;50.780;7.726;2023-05-20T00:01:03;12.70;95.50
11824;DHT22;5969;50.780;7.726;2023-05-20T00:03:30;12.60;95.00
11824;DHT22;5969;50.780;7.726;2023-05-20T00:05:58;12.50;95.30
11824;DHT22;5969;50.780;7.726;2023-05-20T00:08:25;12.50;95.20
11824;DHT22;5969;50.780;7.726;2023-05-20T00:10:51;12.50;95.00
11824;DHT22;5969;50.780;7.726;2023-05-20T00:13:18;12.50;95.20
11824;DHT22;5969;50.780;7.726;2023-05-20T00:15:45;12.60;95.50
11824;DHT22;5969;50.780;7.726;2023-05-20T00:18:12;12.50;95.50
11824;DHT22;5969;50.780;7.726;2023-05-20T00:20:39;12.50;95.30
11824;DHT22;5969;50.780;7.726;2023-05-20T00:23:07;12.50;95.20
11824;DHT22;5969;50.780;7.726;2023-05-20T00:25:34;12.50;95.40
11824;DHT22;5969;50.780;7.726;2023-05-20T00:28:00;12.50;95.50
11824;DHT22;5969;50.780;7.726;2023-05-20T00:30:27;12.50;95.70
11824;DHT22;5969;50.780;7.726;2023-05-20T00:32:54;12.40;95.40
11824;DHT22;5969;50.780;7.726;2023-05-20T00:35:21;12.40;95.40
11824;DHT22;5969;50.780;7.726;2023-05-20T00:37:47;12.30;96.00
11824;DHT22;5969;50.780;7.726;2023-05-20T00:40:16;12.30;96.10
11824;DHT22;5969;50.780;7.726;2023-05-20T00:42:42;12.30;96.10
11824;DHT22;5969;50.780;7.726;2023-05-20T00:45:10;12.30;96.20
11824;DHT22;5969;50.780;7.726;2023-05-20T00:47:37;12.40;95.50
11824;DHT22;5969;50.780;7.726;2023-05-20T00:50:05;12.30;96.20
11824;DHT22;5969;50.780;7.726;2023-05-20T00:52:33;12.40;95.80
11824;DHT22;5969;50.780;7.726;2023-05-20T00:55:00;12.30;95.60
11824;DHT22;5969;50.780;7.726;2023-05-20T00:57:28;12.20;95.70
11824;DHT22;5969;50.780;7.726;2023-05-20T00:59:55;12.20;96.00
11824;DHT22;5969;50.780;7.726;2023-05-20T07:40:11;15.70;99.90
11824;DHT22;5969;50.780;7.726;2023-05-20T07:42:39;15.80;99.90
11824;DHT22;5969;50.780;7.726;2023-05-20T07:45:06;15.80;99.90
11824;DHT22;5969;50.780;7.726;2023-05-20T07:47:33;15.80;99.90
11824;DHT22;5969;50.780;7.726;2023-05-20T07:50:00;15.80;99.90
11824;DHT22;5969;50.780;7.726;2023-05-20T07:52:27;15.90;99.90
11824;DHT22;5969;50.780;7.726;2023-05-20T07:54:53;16.00;99.90
11824;DHT22;5969;50.780;7.726;2023-05-20T07:57:22;16.00;99.90
11824;DHT22;5969;50.780;7.726;2023-05-20T07:59:48;16.10;99.90
11824;DHT22;5969;50.780;7.726;2023-05-20T08:02:15;16.10;99.90
11824;DHT22;5969;50.780;7.726;2023-05-20T08:04:43;16.30;99.90
11824;DHT22;5969;50.780;7.726;2023-05-20T08:07:10;16.30;99.90
11824;DHT22;5969;50.780;7.726;2023-05-20T08:09:36;16.20;99.90
11824;DHT22;5969;50.780;7.726;2023-05-20T08:12:03;16.40;99.90
11824;DHT22;5969;50.780;7.726;2023-05-20T08:14:32;16.40;99.90
11824;DHT22;5969;50.780;7.726;2023-05-20T08:16:59;16.30;99.70
11824;DHT22;5969;50.780;7.726;2023-05-20T08:19:26;16.20;99.90
11824;DHT22;5969;50.780;7.726;2023-05-20T08:21:52;16.10;99.90
11824;DHT22;5969;50.780;7.726;2023-05-20T08:24:19;16.20;99.90
11824;DHT22;5969;50.780;7.726;2023-05-20T08:26:46;16.20;99.90
11824;DHT22;5969;50.780;7.726;2023-05-20T08:29:13;16.20;99.90
11824;DHT22;5969;50.780;7.726;2023-05-20T08:31:41;16.30;99.90
11824;DHT22;5969;50.780;7.726;2023-05-20T08:34:08;16.40;99.90
11824;DHT22;5969;50.780;7.726;2023-05-20T08:36:34;16.40;99.90
11824;DHT22;5969;50.780;7.726;2023-05-20T08:39:01;16.40;99.90
11824;DHT22;5969;50.780;7.726;2023-05-20T08:41:28;16.40;99.90
11824;DHT22;5969;50.780;7.726;2023-05-20T08:43:56;16.40;99.90
11824;DHT22;5969;50.780;7.726;2023-05-20T08:46:24;16.40;99.90
11824;DHT22;5969;50.780;7.726;2023-05-20T08:48:53;16.70;99.00
11824;DHT22;5969;50.780;7.726;2023-05-20T08:51:20;17.10;98.60
11824;DHT22;5969;50.780;7.726;2023-05-20T08:53:47;17.40;98.50
11824;DHT22;5969;50.780;7.726;2023-05-20T08:56:15;17.60;98.10
11824;DHT22;5969;50.780;7.726;2023-05-20T08:58:43;17.80;98.10
11824;DHT22;5969;50.780;7.726;2023-05-20T09:01:11;18.00;98.20
11824;DHT22;5969;50.780;7.726;2023-05-20T09:03:38;18.10;97.90
11824;DHT22;5969;50.780;7.726;2023-05-20T09:06:08;18.20;97.40
11824;DHT22;5969;50.780;7.726;2023-05-20T09:08:35;18.10;96.90
11824;DHT22;5969;50.780;7.726;2023-05-20T09:11:02;18.10;97.10
11824;DHT22;5969;50.780;7.726;2023-05-20T09:13:30;17.90;97.10
11824;DHT22;5969;50.780;7.726;2023-05-20T09:15:58;18.00;97.20
11824;DHT22;5969;50.780;7.726;2023-05-20T09:18:26;18.00;97.00
11824;DHT22;5969;50.780;7.726;2023-05-20T09:20:53;18.20;96.80
11824;DHT22;5969;50.780;7.726;2023-05-20T09:23:21;18.30;97.10
11824;DHT22;5969;50.780;7.726;2023-05-20T09:25:50;18.50;96.60
11824;DHT22;5969;50.780;7.726;2023-05-20T09:28:18;18.60;96.50
11824;DHT22;5969;50.780;7.726;2023-05-20T09:30:48;18.70;96.30
11824;DHT22;5969;50.780;7.726;2023-05-20T09:33:15;18.80;96.60
11824;DHT22;5969;50.780;7.726;2023-05-20T09:35:42;19.00;96.00
11824;DHT22;5969;50.780;7.726;2023-05-20T09:38:10;19.00;95.70
11824;DHT22;5969;50.780;7.726;2023-05-20T09:40:40;19.00;96.20
11824;DHT22;5969;50.780;7.726;2023-05-20T09:43:08;19.00;96.20
11824;DHT22;5969;50.780;7.726;2023-05-20T09:45:36;19.20;96.10
11824;DHT22;5969;50.780;7.726;2023-05-20T09:48:03;19.20;95.60
11824;DHT22;5969;50.780;7.726;2023-05-20T09:50:30;19.30;95.80
11824;DHT22;5969;50.780;7.726;2023-05-20T09:53:02;19.20;95.80
11824;DHT22;5969;50.780;7.726;2023-05-20T09:55:30;19.30;96.00
11824;DHT22;5969;50.780;7.726;2023-05-20T09:58:01;19.30;95.80
11824;DHT22;5969;50.780;7.726;2023-05-20T10:00:28;19.20;96.00
11824;DHT22;5969;50.780;7.726;2023-05-20T10:02:56;19.10;96.10
11824;DHT22;5969;50.780;7.726;2023-05-20T10:05:24;19.30;96.00
11824;DHT22;5969;50.780;7.726;2023-05-20T10:08:13;19.50;95.80
11824;DHT22;5969;50.780;7.726;2023-05-20T10:10:47;19.60;95.70
11824;DHT22;5969;50.780;7.726;2023-05-20T10:13:26;19.70;95.40
11824;DHT22;5969;50.780;7.726;2023-05-20T10:16:04;19.60;95.80
11824;DHT22;5969;50.780;7.726;2023-05-20T10:18:44;19.90;95.80
11824;DHT22;5969;50.780;7.726;2023-05-20T10:21:17;20.10;95.60
11824;DHT22;5969;50.780;7.726;2023-05-20T10:23:46;20.20;95.50
11824;DHT22;5969;50.780;7.726;2023-05-20T10:26:13;20.50;95.30
11824;DHT22;5969;50.780;7.726;2023-05-20T10:28:42;20.60;95.20
11824;DHT22;5969;50.780;7.726;2023-05-20T10:31:15;20.60;94.70
11824;DHT22;5969;50.780;7.726;2023-05-20T10:33:44;20.60;95.20
11824;DHT22;5969;50.780;7.726;2023-05-20T10:36:22;20.70;95.00
11824;DHT22;5969;50.780;7.726;2023-05-20T10:38:52;20.70;95.10
11824;DHT22;5969;50.780;7.726;2023-05-20T10:41:24;20.90;94.80
11824;DHT22;5969;50.780;7.726;2023-05-20T10:44:04;21.10;94.50
11824;DHT22;5969;50.780;7.726;2023-05-20T10:46:32;21.00;94.30
11824;DHT22;5969;50.780;7.726;2023-05-20T10:49:00;20.90;94.50
11824;DHT22;5969;50.780;7.726;2023-05-20T10:51:28;21.00;94.50
11824;DHT22;5969;50.780;7.726;2023-05-20T10:53:56;21.30;94.20
11824;DHT22;5969;50.780;7.726;2023-05-20T10:56:24;21.30;94.50
11824;DHT22;5969;50.780;7.726;2023-05-20T10:58:52;21.10;94.30
11824;DHT22;5969;50.780;7.726;2023-05-20T11:01:24;21.20;94.50
11824;DHT22;5969;50.780;7.726;2023-05-20T11:03:53;21.40;94.20
11824;DHT22;5969;50.780;7.726;2023-05-20T11:06:25;21.40;94.30
11824;DHT22;5969;50.780;7.726;2023-05-20T11:08:53;21.30;94.10
11824;DHT22;5969;50.780;7.726;2023-05-20T11:11:21;21.20;94.50
11824;DHT22;5969;50.780;7.726;2023-05-20T11:13:49;21.20;94.40
11824;DHT22;5969;50.780;7.726;2023-05-20T11:16:16;21.20;94.60
11824;DHT22;5969;50.780;7.726;2023-05-20T11:18:47;21.20;94.20
11824;DHT22;5969;50.780;7.726;2023-05-20T11:21:14;21.10;94.20
11824;DHT22;5969;50.780;7.726;2023-05-20T11:23:41;21.10;93.70
11824;DHT22;5969;50.780;7.726;2023-05-20T11:26:08;20.90;94.20
11824;DHT22;5969;50.780;7.726;2023-05-20T11:28:35;20.80;94.10
11824;DHT22;5969;50.780;7.726;2023-05-20T11:31:02;20.80;94.30
11824;DHT22;5969;50.780;7.726;2023-05-20T11:33:29;21.00;94.40
11824;DHT22;5969;50.780;7.726;2023-05-20T11:35:57;21.10;94.30
11824;DHT22;5969;50.780;7.726;2023-05-20T11:38:24;21.20;94.30
11824;DHT22;5969;50.780;7.726;2023-05-20T11:40:52;21.30;93.60
11824;DHT22;5969;50.780;7.726;2023-05-20T11:43:20;21.60;94.30
11824;DHT22;5969;50.780;7.726;2023-05-20T11:45:52;21.90;93.80
11824;DHT22;5969;50.780;7.726;2023-05-20T11:48:19;21.90;94.00
11824;DHT22;5969;50.780;7.726;2023-05-20T11:50:47;21.70;93.70
11824;DHT22;5969;50.780;7.726;2023-05-20T11:53:16;21.50;94.00
11824;DHT22;5969;50.780;7.726;2023-05-20T11:55:44;21.60;93.80
11824;DHT22;5969;50.780;7.726;2023-05-20T11:58:15;21.70;93.70
11824;DHT22;5969;50.780;7.726;2023-05-20T12:00:42;21.60;93.60
11824;DHT22;5969;50.780;7.726;2023-05-20T12:03:08;21.60;94.10
11824;DHT22;5969;50.780;7.726;2023-05-20T12:05:36;21.90;93.80
11824;DHT22;5969;50.780;7.726;2023-05-20T12:08:04;21.70;93.10
11824;DHT22;5969;50.780;7.726;2023-05-20T12:10:41;21.40;93.70
11824;DHT22;5969;50.780;7.726;2023-05-20T12:13:11;21.40;94.30
11824;DHT22;5969;50.780;7.726;2023-05-20T12:15:38;21.50;93.80
11824;DHT22;5969;50.780;7.726;2023-05-20T12:18:05;21.30;93.70
11824;DHT22;5969;50.780;7.726;2023-05-20T12:20:32;21.00;94.10
11824;DHT22;5969;50.780;7.726;2023-05-20T12:22:59;21.30;94.10
11824;DHT22;5969;50.780;7.726;2023-05-20T12:25:26;21.50;94.20
11824;DHT22;5969;50.780;7.726;2023-05-20T12:27:54;21.50;93.90
11824;DHT22;5969;50.780;7.726;2023-05-20T12:30:22;21.60;93.90
11824;DHT22;5969;50.780;7.726;2023-05-20T12:32:50;21.70;93.70
11824;DHT22;5969;50.780;7.726;2023-05-20T12:35:23;21.80;93.40
11824;DHT22;5969;50.780;7.726;2023-05-20T12:37:50;21.70;93.40
11824;DHT22;5969;50.780;7.726;2023-05-20T12:40:16;21.80;93.00
11824;DHT22;5969;50.780;7.726;2023-05-20T12:42:43;21.90;93.50
11824;DHT22;5969;50.780;7.726;2023-05-20T12:45:11;22.00;93.30
11824;DHT22;5969;50.780;7.726;2023-05-20T12:47:38;22.10;92.70
11824;DHT22;5969;50.780;7.726;2023-05-20T12:50:05;21.80;92.80
11824;DHT22;5969;50.780;7.726;2023-05-20T12:52:32;21.80;93.00
11824;DHT22;5969;50.780;7.726;2023-05-20T12:54:59;21.90;92.90
11824;DHT22;5969;50.780;7.726;2023-05-20T12:57:26;22.10;93.00
11824;DHT22;5969;50.780;7.726;2023-05-20T12:59:53;22.10;93.10
11824;DHT22;5969;50.780;7.726;2023-05-20T13:02:21;22.30;93.20
11824;DHT22;5969;50.780;7.726;2023-05-20T13:04:47;22.40;92.90
11824;DHT22;5969;50.780;7.726;2023-05-20T13:07:14;22.70;93.20
11824;DHT22;5969;50.780;7.726;2023-05-20T13:09:41;23.00;92.40
11824;DHT22;5969;50.780;7.726;2023-05-20T13:12:08;23.00;92.30
11824;DHT22;5969;50.780;7.726;2023-05-20T13:14:35;22.90;92.20
11824;DHT22;5969;50.780;7.726;2023-05-20T13:17:01;22.70;92.20
11824;DHT22;5969;50.780;7.726;2023-05-20T13:19:29;22.80;92.40
11824;DHT22;5969;50.780;7.726;2023-05-20T13:21:56;22.80;92.40
11824;DHT22;5969;50.780;7.726;2023-05-20T13:24:23;22.70;92.30
11824;DHT22;5969;50.780;7.726;2023-05-20T13:26:50;22.30;92.40
11824;DHT22;5969;50.780;7.726;2023-05-20T13:29:17;22.20;92.40
11824;DHT22;5969;50.780;7.726;2023-05-20T13:31:45;22.10;92.70
11824;DHT22;5969;50.780;7.726;2023-05-20T13:34:12;22.20;92.40
11824;DHT22;5969;50.780;7.726;2023-05-20T13:36:40;22.20;92.50
11824;DHT22;5969;50.780;7.726;2023-05-20T13:39:07;22.10;92.80
11824;DHT22;5969;50.780;7.726;2023-05-20T13:41:34;22.20;92.50
11824;DHT22;5969;50.780;7.726;2023-05-20T13:44:01;22.30;92.30
11824;DHT22;5969;50.780;7.726;2023-05-20T13:46:28;21.90;92.90
11824;DHT22;5969;50.780;7.726;2023-05-20T13:48:54;21.80;92.70
11824;DHT22;5969;50.780;7.726;2023-05-20T13:51:21;21.60;93.10
11824;DHT22;5969;50.780;7.726;2023-05-20T13:53:49;21.50;93.10
11824;DHT22;5969;50.780;7.726;2023-05-20T13:56:16;21.50;93.30
11824;DHT22;5969;50.780;7.726;2023-05-20T13:58:43;21.50;92.60
11824;DHT22;5969;50.780;7.726;2023-05-20T14:01:09;21.30;92.90
11824;DHT22;5969;50.780;7.726;2023-05-20T14:03:37;21.20;93.40
11824;DHT22;5969;50.780;7.726;2023-05-20T14:06:05;21.10;93.10
11824;DHT22;5969;50.780;7.726;2023-05-20T14:08:31;21.10;93.00
11824;DHT22;5969;50.780;7.726;2023-05-20T14:11:00;21.10;92.70
11824;DHT22;5969;50.780;7.726;2023-05-20T14:13:26;21.10;93.10
11824;DHT22;5969;50.780;7.726;2023-05-20T14:15:53;21.20;93.50
11824;DHT22;5969;50.780;7.726;2023-05-20T14:18:20;21.70;93.30
11824;DHT22;5969;50.780;7.726;2023-05-20T14:20:47;22.30;92.50
11824;DHT22;5969;50.780;7.726;2023-05-20T14:23:14;23.10;92.80
11824;DHT22;5969;50.780;7.726;2023-05-20T14:25:41;23.60;91.50
11824;DHT22;5969;50.780;7.726;2023-05-20T14:28:09;25.00;92.30
11824;DHT22;5969;50.780;7.726;2023-05-20T14:30:36;26.00;90.60
11824;DHT22;5969;50.780;7.726;2023-05-20T14:33:03;26.50;88.60
11824;DHT22;5969;50.780;7.726;2023-05-20T14:35:30;26.40;87.70
11824;DHT22;5969;50.780;7.726;2023-05-20T14:37:56;25.80;89.80
11824;DHT22;5969;50.780;7.726;2023-05-20T14:40:23;25.60;90.00
11824;DHT22;5969;50.780;7.726;2023-05-20T14:42:50;25.10;90.00
11824;DHT22;5969;50.780;7.726;2023-05-20T14:45:18;24.70;90.90
11824;DHT22;5969;50.780;7.726;2023-05-20T14:47:45;24.60;90.00
11824;DHT22;5969;50.780;7.726;2023-05-20T14:50:12;24.50;90.00
11824;DHT22;5969;50.780;7.726;2023-05-20T14:52:39;24.50;89.70
11824;DHT22;5969;50.780;7.726;2023-05-20T14:55:05;24.70;90.10
11824;DHT22;5969;50.780;7.726;2023-05-20T14:57:33;25.40;90.00
11824;DHT22;5969;50.780;7.726;2023-05-20T15:00:00;25.90;88.60
11824;DHT22;5969;50.780;7.726;2023-05-20T15:02:28;25.50;88.30
11824;DHT22;5969;50.780;7.726;2023-05-20T15:04:54;24.90;88.80
11824;DHT22;5969;50.780;7.726;2023-05-20T15:07:21;24.30;90.20
11824;DHT22;5969;50.780;7.726;2023-05-20T15:09:48;23.70;90.60
11824;DHT22;5969;50.780;7.726;2023-05-20T15:12:14;23.20;91.30
11824;DHT22;5969;50.780;7.726;2023-05-20T15:14:41;23.20;91.20
11824;DHT22;5969;50.780;7.726;2023-05-20T15:17:08;23.00;91.10
11824;DHT22;5969;50.780;7.726;2023-05-20T15:19:36;22.80;91.60
11824;DHT22;5969;50.780;7.726;2023-05-20T15:22:04;23.00;91.50
11824;DHT22;5969;50.780;7.726;2023-05-20T15:24:31;23.80;92.20
11824;DHT22;5969;50.780;7.726;2023-05-20T15:46:39;25.50;87.20
11824;DHT22;5969;50.780;7.726;2023-05-20T15:49:06;24.80;88.80
11824;DHT22;5969;50.780;7.726;2023-05-20T15:51:32;24.10;89.60
11824;DHT22;5969;50.780;7.726;2023-05-20T15:54:00;23.40;90.30
11824;DHT22;5969;50.780;7.726;2023-05-20T15:56:28;22.60;90.80
11824;DHT22;5969;50.780;7.726;2023-05-20T15:58:55;22.40;91.40
11824;DHT22;5969;50.780;7.726;2023-05-20T16:01:22;22.30;91.30
11824;DHT22;5969;50.780;7.726;2023-05-20T16:03:50;22.20;91.40
11824;DHT22;5969;50.780;7.726;2023-05-20T16:06:17;22.60;91.40
11824;DHT22;5969;50.780;7.726;2023-05-20T16:08:44;22.90;91.20
11824;DHT22;5969;50.780;7.726;2023-05-20T16:11:12;22.90;90.30
11824;DHT22;5969;50.780;7.726;2023-05-20T16:13:38;22.70;90.90
11824;DHT22;5969;50.780;7.726;2023-05-20T16:16:06;22.40;92.50
11824;DHT22;5969;50.780;7.726;2023-05-20T16:18:32;23.60;91.50
11824;DHT22;5969;50.780;7.726;2023-05-20T16:20:59;25.00;90.30
11824;DHT22;5969;50.780;7.726;2023-05-20T16:23:26;26.40;88.10
11824;DHT22;5969;50.780;7.726;2023-05-20T16:25:52;27.20;86.50
11824;DHT22;5969;50.780;7.726;2023-05-20T16:28:20;27.70;86.50
11824;DHT22;5969;50.780;7.726;2023-05-20T16:30:48;28.60;84.50
11824;DHT22;5969;50.780;7.726;2023-05-20T16:33:15;28.20;83.00
11824;DHT22;5969;50.780;7.726;2023-05-20T16:35:42;27.00;84.00
11824;DHT22;5969;50.780;7.726;2023-05-20T16:38:08;25.70;88.50
11824;DHT22;5969;50.780;7.726;2023-05-20T16:40:35;26.00;87.80
11824;DHT22;5969;50.780;7.726;2023-05-20T16:43:02;26.00;85.90
11824;DHT22;5969;50.780;7.726;2023-05-20T16:45:30;25.20;87.10
11824;DHT22;5969;50.780;7.726;2023-05-20T16:47:57;24.50;89.20
11824;DHT22;5969;50.780;7.726;2023-05-20T16:50:23;24.00;89.70
11824;DHT22;5969;50.780;7.726;2023-05-20T16:52:50;23.30;90.20
11824;DHT22;5969;50.780;7.726;2023-05-20T16:55:17;23.00;90.80
11824;DHT22;5969;50.780;7.726;2023-05-20T16:57:43;22.50;91.00
11824;DHT22;5969;50.780;7.726;2023-05-20T17:00:12;22.30;91.40
11824;DHT22;5969;50.780;7.726;2023-05-20T17:02:40;21.90;91.00
11824;DHT22;5969;50.780;7.726;2023-05-20T17:05:08;21.60;91.60
11824;DHT22;5969;50.780;7.726;2023-05-20T17:07:35;21.40;91.50
11824;DHT22;5969;50.780;7.726;2023-05-20T17:10:03;21.40;91.20
11824;DHT22;5969;50.780;7.726;2023-05-20T17:12:29;21.10;91.70
11824;DHT22;5969;50.780;7.726;2023-05-20T17:14:56;20.80;92.10
11824;DHT22;5969;50.780;7.726;2023-05-20T17:17:23;20.70;92.20
11824;DHT22;5969;50.780;7.726;2023-05-20T17:19:51;20.50;92.30
11824;DHT22;5969;50.780;7.726;2023-05-20T17:22:17;20.50;92.70
11824;DHT22;5969;50.780;7.726;2023-05-20T17:24:44;20.60;92.80
11824;DHT22;5969;50.780;7.726;2023-05-20T17:27:11;20.50;92.90
11824;DHT22;5969;50.780;7.726;2023-05-20T17:29:38;20.50;92.80
11824;DHT22;5969;50.780;7.726;2023-05-20T17:32:06;20.50;92.90
11824;DHT22;5969;50.780;7.726;2023-05-20T17:34:32;20.50;93.20
11824;DHT22;5969;50.780;7.726;2023-05-20T17:37:01;20.50;93.10
11824;DHT22;5969;50.780;7.726;2023-05-20T17:39:27;20.50;92.90
11824;DHT22;5969;50.780;7.726;2023-05-20T17:41:54;20.80;93.00
11824;DHT22;5969;50.780;7.726;2023-05-20T17:44:21;21.00;93.30
11824;DHT22;5969;50.780;7.726;2023-05-20T17:46:47;21.10;92.30
11824;DHT22;5969;50.780;7.726;2023-05-20T17:49:14;21.10;92.70
11824;DHT22;5969;50.780;7.726;2023-05-20T17:51:41;21.00;92.50
11824;DHT22;5969;50.780;7.726;2023-05-20T17:54:09;21.00;92.60
11824;DHT22;5969;50.780;7.726;2023-05-20T17:56:35;21.00;92.60
11824;DHT22;5969;50.780;7.726;2023-05-20T17:59:02;20.90;92.80
11824;DHT22;5969;50.780;7.726;2023-05-20T18:01:29;20.90;92.60
11824;DHT22;5969;50.780;7.726;2023-05-20T18:03:55;20.60;92.80
11824;DHT22;5969;50.780;7.726;2023-05-20T18:06:24;20.40;92.90
11824;DHT22;5969;50.780;7.726;2023-05-20T18:08:51;20.30;92.90
11824;DHT22;5969;50.780;7.726;2023-05-20T18:11:21;20.20;93.10
11824;DHT22;5969;50.780;7.726;2023-05-20T18:13:48;19.90;93.30
11824;DHT22;5969;50.780;7.726;2023-05-20T18:16:15;19.60;93.50
11824;DHT22;5969;50.780;7.726;2023-05-20T18:18:42;19.60;93.80
11824;DHT22;5969;50.780;7.726;2023-05-20T18:21:09;19.40;94.00
11824;DHT22;5969;50.780;7.726;2023-05-20T18:23:35;19.30;94.10
11824;DHT22;5969;50.780;7.726;2023-05-20T18:26:02;19.30;94.00
11824;DHT22;5969;50.780;7.726;2023-05-20T18:28:32;19.20;94.10
11824;DHT22;5969;50.780;7.726;2023-05-20T18:30:59;19.10;94.50
11824;DHT22;5969;50.780;7.726;2023-05-20T18:33:26;19.10;94.50
11824;DHT22;5969;50.780;7.726;2023-05-20T18:35:52;18.90;94.70
11824;DHT22;5969;50.780;7.726;2023-05-20T18:38:19;18.80;94.90
11824;DHT22;5969;50.780;7.726;2023-05-20T18:40:46;18.70;94.70
11824;DHT22;5969;50.780;7.726;2023-05-20T18:43:13;18.60;95.20
11824;DHT22;5969;50.780;7.726;2023-05-20T18:45:41;18.50;95.30
11824;DHT22;5969;50.780;7.726;2023-05-20T18:48:08;18.40;95.30
11824;DHT22;5969;50.780;7.726;2023-05-20T18:50:35;18.30;95.50
11824;DHT22;5969;50.780;7.726;2023-05-20T18:53:02;18.20;95.70
11824;DHT22;5969;50.780;7.726;2023-05-20T18:55:28;18.20;95.70
11824;DHT22;5969;50.780;7.726;2023-05-20T18:57:55;18.10;96.00
11824;DHT22;5969;50.780;7.726;2023-05-20T19:00:22;18.00;96.00
11824;DHT22;5969;50.780;7.726;2023-05-20T19:02:50;18.00;95.90
11824;DHT22;5969;50.780;7.726;2023-05-20T19:05:17;17.90;96.00
11824;DHT22;5969;50.780;7.726;2023-05-20T19:07:44;17.80;96.10
11824;DHT22;5969;50.780;7.726;2023-05-20T19:10:10;17.70;96.30
11824;DHT22;5969;50.780;7.726;2023-05-20T19:12:37;17.70;96.50
11824;DHT22;5969;50.780;7.726;2023-05-20T19:15:05;17.50;96.60
11824;DHT22;5969;50.780;7.726;2023-05-20T19:17:32;17.50;96.70
11824;DHT22;5969;50.780;7.726;2023-05-20T19:20:00;17.40;96.80
11824;DHT22;5969;50.780;7.726;2023-05-20T19:22:26;17.30;97.10
11824;DHT22;5969;50.780;7.726;2023-05-20T19:24:53;17.30;97.30
11824;DHT22;5969;50.780;7.726;2023-05-20T19:27:20;17.30;97.40
11824;DHT22;5969;50.780;7.726;2023-05-20T19:29:47;17.20;97.50
11824;DHT22;5969;50.780;7.726;2023-05-20T19:32:13;17.10;97.60
11824;DHT22;5969;50.780;7.726;2023-05-20T19:34:40;17.00;97.70
11824;DHT22;5969;50.780;7.726;2023-05-20T19:37:09;17.00;97.80
11824;DHT22;5969;50.780;7.726;2023-05-20T19:39:36;16.90;98.20
11824;DHT22;5969;50.780;7.726;2023-05-20T19:42:03;16.80;98.00
11824;DHT22;5969;50.780;7.726;2023-05-20T19:44:30;16.70;98.30
11824;DHT22;5969;50.780;7.726;2023-05-20T19:46:56;16.50;98.50
11824;DHT22;5969;50.780;7.726;2023-05-20T19:49:23;16.50;98.60
11824;DHT22;5969;50.780;7.726;2023-05-20T19:51:50;16.50;98.70
11824;DHT22;5969;50.780;7.726;2023-05-20T19:54:18;16.40;98.90
11824;DHT22;5969;50.780;7.726;2023-05-20T19:56:45;16.30;98.90
11824;DHT22;5969;50.780;7.726;2023-05-20T19:59:12;16.30;99.40
11824;DHT22;5969;50.780;7.726;2023-05-20T20:01:38;16.30;99.10
11824;DHT22;5969;50.780;7.726;2023-05-20T20:04:05;16.20;99.30
11824;DHT22;5969;50.780;7.726;2023-05-20T20:06:32;16.20;99.40
11824;DHT22;5969;50.780;7.726;2023-05-20T20:08:59;16.20;99.50
11824;DHT22;5969;50.780;7.726;2023-05-20T20:11:27;16.20;99.40
11824;DHT22;5969;50.780;7.726;2023-05-20T20:13:54;16.20;99.40
11824;DHT22;5969;50.780;7.726;2023-05-20T20:16:22;16.00;99.50
11824;DHT22;5969;50.780;7.726;2023-05-20T20:18:51;16.00;99.80
11824;DHT22;5969;50.780;7.726;2023-05-20T20:21:18;15.90;99.90
11824;DHT22;5969;50.780;7.726;2023-05-20T20:23:44;15.90;99.90
11824;DHT22;5969;50.780;7.726;2023-05-20T20:26:11;15.80;99.90
11824;DHT22;5969;50.780;7.726;2023-05-20T20:28:40;15.80;99.90
11824;DHT22;5969;50.780;7.726;2023-05-20T20:31:07;15.80;99.90
11824;DHT22;5969;50.780;7.726;2023-05-20T20:33:33;15.70;99.90
11824;DHT22;5969;50.780;7.726;2023-05-20T20:36:00;15.70;99.90
11824;DHT22;5969;50.780;7.726;2023-05-20T20:38:27;15.70;99.90
11824;DHT22;5969;50.780;7.726;2023-05-20T20:40:54;15.60;99.90
11824;DHT22;5969;50.780;7.726;2023-05-20T20:43:20;15.50;99.90
11824;DHT22;5969;50.780;7.726;2023-05-20T20:45:48;15.40;99.90
11824;DHT22;5969;50.780;7.726;2023-05-20T20:48:17;15.30;99.90
11824;DHT22;5969;50.780;7.726;2023-05-20T20:50:44;15.20;99.90
11824;DHT22;5969;50.780;7.726;2023-05-20T20:53:12;15.20;99.90
11824;DHT22;5969;50.780;7.726;2023-05-20T20:55:40;15.10;99.90
11824;DHT22;5969;50.780;7.726;2023-05-20T20:58:08;15.00;99.90
11824;DHT22;5969;50.780;7.726;2023-05-20T21:00:35;14.90;99.90
11824;DHT22;5969;50.780;7.726;2023-05-20T21:03:05;14.90;99.90
11824;DHT22;5969;50.780;7.726;2023-05-20T21:05:33;14.90;99.90
11824;DHT22;5969;50.780;7.726;2023-05-20T21:08:00;14.90;99.90
11824;DHT22;5969;50.780;7.726;2023-05-20T21:10:27;14.90;99.90
11824;DHT22;5969;50.780;7.726;2023-05-20T21:12:54;15.00;99.90
11824;DHT22;5969;50.780;7.726;2023-05-20T21:15:21;14.90;99.90
11824;DHT22;5969;50.780;7.726;2023-05-20T21:17:48;14.90;99.90
11824;DHT22;5969;50.780;7.726;2023-05-20T21:20:17;14.80;99.90
11824;DHT22;5969;50.780;7.726;2023-05-20T21:22:43;14.70;99.90
11824;DHT22;5969;50.780;7.726;2023-05-20T21:25:10;14.60;99.90
11824;DHT22;5969;50.780;7.726;2023-05-20T21:27:38;14.60;99.90
11824;DHT22;5969;50.780;7.726;2023-05-20T21:30:07;14.50;99.90
11824;DHT22;5969;50.780;7.726;2023-05-20T21:32:33;14.50;99.90
11824;DHT22;5969;50.780;7.726;2023-05-20T21:35:00;14.40;99.90
11824;DHT22;5969;50.780;7.726;2023-05-20T21:37:28;14.30;99.90
11824;DHT22;5969;50.780;7.726;2023-05-20T21:39:55;14.30;99.90
11824;DHT22;5969;50.780;7.726;2023-05-20T21:42:22;14.20;99.90
11824;DHT22;5969;50.780;7.726;2023-05-20T21:44:48;14.20;99.90
11824;DHT22;5969;50.780;7.726;2023-05-20T21:47:15;14.20;99.90
11824;DHT22;5969;50.780;7.726;2023-05-20T21:49:44;14.10;99.90
11824;DHT22;5969;50.780;7.726;2023-05-20T21:52:11;14.00;99.90
11824;DHT22;5969;50.780;7.726;2023-05-20T21:54:39;14.00;99.90
11824;DHT22;5969;50.780;7.726;2023-05-20T21:57:06;14.00;99.90
11824;DHT22;5969;50.780;7.726;2023-05-20T21:59:33;14.00;99.90
11824;DHT22;5969;50.780;7.726;2023-05-20T22:02:00;13.90;99.90
11824;DHT22;5969;50.780;7.726;2023-05-20T22:04:27;13.90;99.90
11824;DHT22;5969;50.780;7.726;2023-05-20T22:06:54;13.90;99.90
11824;DHT22;5969;50.780;7.726;2023-05-20T22:09:20;13.90;99.90
11824;DHT22;5969;50.780;7.726;2023-05-20T22:11:49;13.80;99.90
11824;DHT22;5969;50.780;7.726;2023-05-20T22:14:15;13.80;99.90
11824;DHT22;5969;50.780;7.726;2023-05-20T22:16:42;13.70;99.90
11824;DHT22;5969;50.780;7.726;2023-05-20T22:19:10;13.70;99.90
11824;DHT22;5969;50.780;7.726;2023-05-20T22:21:38;13.70;99.90
11824;DHT22;5969;50.780;7.726;2023-05-20T22:24:05;13.80;99.90
11824;DHT22;5969;50.780;7.726;2023-05-20T22:26:31;13.80;99.90
11824;DHT22;5969;50.780;7.726;2023-05-20T22:29:00;13.70;99.90
11824;DHT22;5969;50.780;7.726;2023-05-20T22:31:26;13.60;99.90
11824;DHT22;5969;50.780;7.726;2023-05-20T22:33:53;13.60;99.90
11824;DHT22;5969;50.780;7.726;2023-05-20T22:36:20;13.50;99.90
11824;DHT22;5969;50.780;7.726;2023-05-20T22:38:48;13.50;99.90
11824;DHT22;5969;50.780;7.726;2023-05-20T22:41:15;13.50;99.90
11824;DHT22;5969;50.780;7.726;2023-05-20T22:43:42;13.50;99.90